createdAt,value
2018-08-22T00:01:55.560Z,1.20
2018-08-22T00:04:25.432Z,1.50
2018-08-22T00:06:55.214Z,1.40
2018-08-22T00:09:25.091Z,1.20
2018-08-22T00:11:54.954Z,1.57
2018-08-22T00:14:24.525Z,1.30
2018-08-22T00:16:53.927Z,1.40
2018-08-22T00:19:23.467Z,1.63
2018-08-22T00:21:52.770Z,1.40
2018-08-22T00:24:22.987Z,1.10
2018-08-22T00:26:52.974Z,1.40
2018-08-22T00:29:22.514Z,1.37
2018-08-22T00:31:52.461Z,1.60
2018-08-22T00:34:21.915Z,1.80
2018-08-22T00:36:51.765Z,1.43
2018-08-22T00:39:21.623Z,1.50
2018-08-22T00:41:51.417Z,1.80
2018-08-22T00:44:21.453Z,1.60
2018-08-22T00:46:51.495Z,1.50
2018-08-22T00:49:21.417Z,1.60
2018-08-22T00:51:50.961Z,1.87
2018-08-22T00:54:20.280Z,2.13
2018-08-22T00:56:49.923Z,1.80
2018-08-22T00:59:19.713Z,2.50
2018-08-22T01:01:49.312Z,1.70
2018-08-22T01:04:19.085Z,1.73
2018-08-22T01:06:48.822Z,1.90
2018-08-22T01:09:18.804Z,1.97
2018-08-22T01:11:48.214Z,2.07
2018-08-22T01:14:18.215Z,1.77
2018-08-22T01:16:47.538Z,1.60
2018-08-22T01:19:17.312Z,2.20
2018-08-22T01:21:46.942Z,1.90
2018-08-22T01:24:17.167Z,1.70
2018-08-22T01:26:46.628Z,1.90
2018-08-22T01:29:16.399Z,1.73
2018-08-22T01:31:45.744Z,1.90
2018-08-22T01:34:15.292Z,1.80
2018-08-22T01:36:44.768Z,2.13
2018-08-22T01:39:14.042Z,1.70
2018-08-22T01:41:43.619Z,1.87
2018-08-22T01:44:13.537Z,1.93
2018-08-22T01:46:43.712Z,1.80
2018-08-22T01:49:13.658Z,2.03
2018-08-22T01:51:43.414Z,1.80
2018-08-22T01:54:13.408Z,1.97
2018-08-22T01:56:42.920Z,2.03
2018-08-22T01:59:12.620Z,1.83
2018-08-22T02:01:42.028Z,1.80
2018-08-22T02:04:11.566Z,1.93
2018-08-22T02:06:41.474Z,2.27
2018-08-22T02:09:12.489Z,1.57
2018-08-22T02:11:42.453Z,2.20
2018-08-22T02:14:13.042Z,1.80
2018-08-22T02:16:42.886Z,2.37
2018-08-22T02:19:12.382Z,1.93
2018-08-22T02:21:42.336Z,2.03
2018-08-22T02:24:11.956Z,2.00
2018-08-22T02:26:41.703Z,2.17
2018-08-22T02:29:11.235Z,1.90
2018-08-22T02:31:41.076Z,2.07
2018-08-22T02:34:10.519Z,1.73
2018-08-22T02:36:40.213Z,1.80
2018-08-22T02:39:10.148Z,1.97
2018-08-22T02:41:40.101Z,1.70
2018-08-22T02:44:10.324Z,1.63
2018-08-22T02:46:40.381Z,1.53
2018-08-22T02:49:14.135Z,1.53
2018-08-22T02:51:43.460Z,1.77
2018-08-22T02:54:13.300Z,1.80
2018-08-22T02:56:42.643Z,1.80
2018-08-22T02:59:12.038Z,1.60
2018-08-22T03:01:41.247Z,1.50
2018-08-22T03:04:11.290Z,1.83
2018-08-22T03:06:41.201Z,1.60
2018-08-22T03:09:10.961Z,1.83
2018-08-22T03:11:40.791Z,1.90
2018-08-22T03:14:10.408Z,1.80
2018-08-22T03:16:40.131Z,1.87
2018-08-22T03:19:09.798Z,1.40
2018-08-22T03:21:39.498Z,1.80
2018-08-22T03:24:09.059Z,1.73
2018-08-22T03:26:38.853Z,1.80
2018-08-22T03:29:08.968Z,1.60
2018-08-22T03:31:39.155Z,1.70
2018-08-22T03:34:08.911Z,1.40
2018-08-22T03:36:38.532Z,1.70
2018-08-22T03:39:08.659Z,2.03
2018-08-22T03:41:38.055Z,1.60
2018-08-22T03:44:07.899Z,2.00
2018-08-22T03:46:36.937Z,2.10
2018-08-22T03:49:06.335Z,2.63
2018-08-22T03:51:35.625Z,1.73
2018-08-22T03:54:04.754Z,1.90
2018-08-22T03:56:33.987Z,2.20
2018-08-22T03:59:03.275Z,2.33
2018-08-22T04:01:32.497Z,2.00
2018-08-22T04:04:01.997Z,2.70
2018-08-22T04:06:31.601Z,2.13
2018-08-22T04:09:01.055Z,2.40
2018-08-22T04:11:30.456Z,2.47
2018-08-22T04:14:00.234Z,2.27
2018-08-22T04:16:30.403Z,2.20
2018-08-22T04:19:00.385Z,2.10
2018-08-22T04:21:30.326Z,2.50
2018-08-22T04:24:00.505Z,2.30
2018-08-22T04:26:30.544Z,2.73
2018-08-22T04:29:00.435Z,2.40
2018-08-22T04:31:30.999Z,1.97
2018-08-22T04:34:05.558Z,2.40
2018-08-22T04:36:38.043Z,2.50
2018-08-22T04:39:08.807Z,2.40
2018-08-22T04:41:38.952Z,2.50
2018-08-22T04:44:10.945Z,2.40
2018-08-22T04:46:40.967Z,2.67
2018-08-22T04:49:11.414Z,2.30
2018-08-22T04:51:41.803Z,2.23
2018-08-22T04:54:12.644Z,2.17
2018-08-22T04:56:43.493Z,2.43
2018-08-22T04:59:14.828Z,2.50
2018-08-22T05:01:45.613Z,2.37
2018-08-22T05:04:16.173Z,2.20
2018-08-22T05:06:47.140Z,2.37
2018-08-22T05:09:18.627Z,2.10
2018-08-22T05:11:50.249Z,1.80
2018-08-22T05:17:12.369Z,2.50
2018-08-22T05:19:42.884Z,2.27
2018-08-22T05:25:20.670Z,2.47
2018-08-22T05:27:51.761Z,2.73
2018-08-22T05:30:21.754Z,2.00
2018-08-22T05:32:52.095Z,2.20
2018-08-22T05:35:22.937Z,2.47
2018-08-22T05:37:53.415Z,2.17
2018-08-22T05:40:24.466Z,1.70
2018-08-22T05:42:55.830Z,1.90
2018-08-22T05:45:26.945Z,1.80
2018-08-22T05:47:58.022Z,1.87
2018-08-22T05:50:29.266Z,1.80
2018-08-22T05:52:59.387Z,2.03
2018-08-22T05:55:30.040Z,1.93
2018-08-22T05:58:00.945Z,2.03
2018-08-22T06:00:31.106Z,1.27
2018-08-22T06:03:02.580Z,1.57
2018-08-22T06:05:33.134Z,1.83
2018-08-22T06:08:04.185Z,2.00
2018-08-22T06:10:35.317Z,1.53
2018-08-22T06:13:06.949Z,1.50
2018-08-22T06:15:37.460Z,1.63
2018-08-22T06:18:08.288Z,1.73
2018-08-22T06:20:39.095Z,1.50
2018-08-22T06:23:10.118Z,1.63
2018-08-22T06:25:40.725Z,1.77
2018-08-22T06:28:10.830Z,1.40
2018-08-22T06:30:42.624Z,1.27
2018-08-22T06:33:13.266Z,1.40
2018-08-22T06:35:44.231Z,1.23
2018-08-22T06:38:14.541Z,1.23
2018-08-22T06:40:44.914Z,1.60
2018-08-22T06:43:15.680Z,1.30
2018-08-22T06:45:47.694Z,1.60
2018-08-22T06:48:18.270Z,1.80
2018-08-22T06:50:49.512Z,1.70
2018-08-22T06:53:19.758Z,1.50
2018-08-22T06:55:50.006Z,1.80
2018-08-22T06:58:20.223Z,1.30
2018-08-22T07:00:51.231Z,1.50
2018-08-22T07:03:26.200Z,1.50
2018-08-22T07:05:57.543Z,1.47
2018-08-22T07:08:28.037Z,1.30
2018-08-22T07:10:59.307Z,1.57
2018-08-22T07:13:29.587Z,1.37
2018-08-22T07:16:00.643Z,1.30
2018-08-22T07:18:30.937Z,1.57
2018-08-22T07:21:01.921Z,1.60
2018-08-22T07:23:32.343Z,1.60
2018-08-22T07:26:02.507Z,1.10
2018-08-22T07:28:33.137Z,1.50
2018-08-22T07:31:03.735Z,1.30
2018-08-22T07:33:33.785Z,1.80
2018-08-22T07:36:03.642Z,1.27
2018-08-22T07:38:33.570Z,1.57
2018-08-22T07:41:04.203Z,1.30
2018-08-22T07:43:34.288Z,1.30
2018-08-22T07:46:04.098Z,1.20
2018-08-22T07:48:34.245Z,1.47
2018-08-22T07:51:04.015Z,1.10
2018-08-22T07:53:33.973Z,1.63
2018-08-22T07:56:05.523Z,1.20
2018-08-22T07:58:35.456Z,1.03
2018-08-22T08:01:05.347Z,1.50
2018-08-22T08:03:35.907Z,1.50
2018-08-22T08:06:06.147Z,1.50
2018-08-22T08:08:36.048Z,1.40
2018-08-22T08:11:06.280Z,1.20
2018-08-22T08:13:36.513Z,1.63
2018-08-22T08:16:06.920Z,1.37
2018-08-22T08:18:37.239Z,1.60
2018-08-22T08:21:07.357Z,1.37
2018-08-22T08:23:37.011Z,1.60
2018-08-22T08:26:07.006Z,1.50
2018-08-22T08:28:36.792Z,1.60
2018-08-22T08:31:06.750Z,1.47
2018-08-22T08:33:36.304Z,1.60
2018-08-22T08:36:06.961Z,1.50
2018-08-22T08:38:36.844Z,1.50
2018-08-22T08:41:06.720Z,1.43
2018-08-22T08:43:36.996Z,1.40
2018-08-22T08:46:06.995Z,1.80
2018-08-22T08:48:37.368Z,2.00
2018-08-22T08:51:07.437Z,1.60
2018-08-22T08:53:37.410Z,1.80
2018-08-22T08:56:07.327Z,1.20
2018-08-22T08:58:38.003Z,1.53
2018-08-22T09:01:07.972Z,1.37
2018-08-22T09:03:38.232Z,1.40
2018-08-22T09:06:08.687Z,1.50
2018-08-22T09:08:38.627Z,1.20
2018-08-22T09:11:08.765Z,1.73
2018-08-22T09:14:10.647Z,1.27
2018-08-22T09:16:41.025Z,1.40
2018-08-22T09:19:12.817Z,1.43
2018-08-22T09:21:43.119Z,1.50
2018-08-22T09:24:12.959Z,1.77
2018-08-22T09:26:43.312Z,1.97
2018-08-22T09:29:13.466Z,1.17
2018-08-22T09:31:43.579Z,1.57
2018-08-22T09:34:13.127Z,1.30
2018-08-22T09:36:42.948Z,1.30
2018-08-22T09:39:14.521Z,1.47
2018-08-22T09:41:44.626Z,1.47
2018-08-22T09:44:14.665Z,1.53
2018-08-22T09:46:44.464Z,1.13
2018-08-22T09:49:14.465Z,1.73
2018-08-22T09:51:44.491Z,1.40
2018-08-22T09:54:14.372Z,1.33
2018-08-22T09:56:45.550Z,1.63
2018-08-22T09:59:15.993Z,1.53
2018-08-22T10:01:46.139Z,1.50
2018-08-22T10:04:16.396Z,1.37
2018-08-22T10:06:46.811Z,1.40
2018-08-22T10:09:18.401Z,1.60
2018-08-22T10:11:48.365Z,1.20
2018-08-22T10:14:18.315Z,1.40
2018-08-22T10:16:48.825Z,1.50
2018-08-22T10:19:18.597Z,1.13
2018-08-22T10:21:48.191Z,1.70
2018-08-22T10:24:18.023Z,1.40
2018-08-22T10:26:48.126Z,1.13
2018-08-22T10:29:18.079Z,1.10
2018-08-22T10:31:47.995Z,1.20
2018-08-22T10:34:18.023Z,1.10
2018-08-22T10:36:48.166Z,1.33
2018-08-22T10:39:18.192Z,1.00
2018-08-22T10:41:48.174Z,1.10
2018-08-22T10:44:18.169Z,1.23
2018-08-22T10:46:48.186Z,1.13
2018-08-22T10:49:18.110Z,1.20
2018-08-22T10:51:48.099Z,1.00
2018-08-22T10:54:18.201Z,1.00
2018-08-22T10:56:48.381Z,1.23
2018-08-22T10:59:18.109Z,1.27
2018-08-22T11:01:47.911Z,1.10
2018-08-22T11:04:17.816Z,1.40
2018-08-22T11:06:47.661Z,1.10
2018-08-22T11:09:18.131Z,1.27
2018-08-22T11:11:48.379Z,1.20
2018-08-22T11:14:18.258Z,1.00
2018-08-22T11:16:48.171Z,1.20
2018-08-22T11:19:18.209Z,1.20
2018-08-22T11:21:59.400Z,1.07
2018-08-22T11:24:40.257Z,1.20
2018-08-22T11:27:21.075Z,1.00
2018-08-22T11:30:01.828Z,1.20
2018-08-22T11:32:42.672Z,1.00
2018-08-22T11:35:10.844Z,1.10
2018-08-22T11:37:40.513Z,1.20
2018-08-22T11:40:10.571Z,1.20
2018-08-22T11:42:40.417Z,1.30
2018-08-22T11:45:10.303Z,1.10
2018-08-22T11:47:40.630Z,1.30
2018-08-22T11:50:10.773Z,1.10
2018-08-22T11:52:41.067Z,1.30
2018-08-22T11:55:11.389Z,1.00
2018-08-22T11:57:41.016Z,1.23
2018-08-22T12:00:10.777Z,1.10
2018-08-22T12:02:40.822Z,1.53
2018-08-22T12:05:10.659Z,1.37
2018-08-22T12:07:40.534Z,1.40
2018-08-22T12:10:10.415Z,1.30
2018-08-22T12:12:40.300Z,1.23
2018-08-22T12:15:10.557Z,1.87
2018-08-22T12:17:40.662Z,1.30
2018-08-22T12:20:12.546Z,1.77
2018-08-22T12:22:42.438Z,1.83
2018-08-22T12:25:12.421Z,1.80
2018-08-22T12:27:42.240Z,1.80
2018-08-22T12:30:12.294Z,1.90
2018-08-22T12:32:41.913Z,1.80
2018-08-22T12:35:11.339Z,2.70
2018-08-22T12:37:40.887Z,2.40
2018-08-22T12:40:10.824Z,1.93
2018-08-22T12:42:40.689Z,2.40
2018-08-22T12:45:11.309Z,1.90
2018-08-22T12:47:41.149Z,3.03
2018-08-22T12:50:10.970Z,2.00
2018-08-22T12:52:41.046Z,2.17
2018-08-22T12:55:11.246Z,2.10
2018-08-22T12:57:41.268Z,2.10
2018-08-22T13:00:11.440Z,2.20
2018-08-22T13:02:41.048Z,2.17
2018-08-22T13:05:12.016Z,1.97
2018-08-22T13:07:42.045Z,2.00
2018-08-22T13:10:12.147Z,2.35
2018-08-22T13:12:42.117Z,2.67
2018-08-22T13:15:12.120Z,2.57
2018-08-22T13:17:42.189Z,2.10
2018-08-22T13:20:12.400Z,2.60
2018-08-22T13:22:42.474Z,3.25
2018-08-22T13:25:12.150Z,2.73
2018-08-22T13:27:42.241Z,2.75
2018-08-22T13:30:12.003Z,2.23
2018-08-22T13:32:41.907Z,2.25
2018-08-22T13:35:12.140Z,2.40
2018-08-22T13:37:42.136Z,2.90
2018-08-22T13:40:12.233Z,2.57
2018-08-22T13:42:42.132Z,2.73
2018-08-22T13:45:12.091Z,2.72
2018-08-22T13:47:41.955Z,2.90
2018-08-22T13:50:11.656Z,2.55
2018-08-22T13:52:41.440Z,3.00
2018-08-22T13:55:11.118Z,2.12
2018-08-22T13:57:41.260Z,2.87
2018-08-22T14:00:10.902Z,2.50
2018-08-22T14:02:40.718Z,2.40
2018-08-22T14:05:11.023Z,3.00
2018-08-22T14:07:41.335Z,3.60
2018-08-22T14:10:11.249Z,3.00
2018-08-22T14:12:41.437Z,2.65
2018-08-22T14:15:12.759Z,2.80
2018-08-22T14:17:43.036Z,2.83
2018-08-22T14:20:13.225Z,2.60
2018-08-22T14:22:43.271Z,2.65
2018-08-22T14:25:13.660Z,2.60
2018-08-22T14:27:44.477Z,2.60
2018-08-22T14:30:21.001Z,2.80
2018-08-22T14:32:50.810Z,2.70
2018-08-22T14:35:20.704Z,2.50
2018-08-22T14:37:51.045Z,2.87
2018-08-22T14:40:22.059Z,2.90
2018-08-22T14:42:52.028Z,2.95
2018-08-22T14:45:21.915Z,2.95
2018-08-22T14:47:52.207Z,3.90
2018-08-22T14:50:22.181Z,2.80
2018-08-22T14:52:52.435Z,2.87
2018-08-22T14:55:22.589Z,3.20
2018-08-22T14:57:52.935Z,2.85
2018-08-22T15:00:23.077Z,2.90
2018-08-22T15:02:53.509Z,3.27
2018-08-22T15:05:23.803Z,3.47
2018-08-22T15:07:53.952Z,3.05
2018-08-22T15:10:28.466Z,3.70
2018-08-22T15:13:00.391Z,3.27
2018-08-22T15:15:33.682Z,2.95
2018-08-22T15:18:08.838Z,3.42
2018-08-22T15:20:41.699Z,3.00
2018-08-22T15:23:12.870Z,3.35
2018-08-22T15:25:44.934Z,3.70
2018-08-22T15:28:18.618Z,3.45
2018-08-22T15:30:52.224Z,3.90
2018-08-22T15:33:22.511Z,3.60
2018-08-22T15:35:54.016Z,3.22
2018-08-22T15:38:32.521Z,3.45
2018-08-22T15:41:05.391Z,3.50
2018-08-22T15:43:38.921Z,3.40
2018-08-22T15:46:10.377Z,3.47
2018-08-22T15:48:43.348Z,3.55
2018-08-22T15:51:15.294Z,2.67
2018-08-22T15:53:51.924Z,3.62
2018-08-22T15:56:22.136Z,3.50
2018-08-22T15:58:52.412Z,3.67
2018-08-22T16:01:23.434Z,3.20
2018-08-22T16:03:54.258Z,3.80
2018-08-22T16:06:25.293Z,3.37
2018-08-22T16:08:55.449Z,3.65
2018-08-22T16:11:25.557Z,3.92
2018-08-22T16:13:55.654Z,3.50
2018-08-22T16:16:28.060Z,3.52
2018-08-22T16:18:58.349Z,4.03
2018-08-22T16:21:28.300Z,3.90
2018-08-22T16:23:58.329Z,3.50
2018-08-22T16:26:28.303Z,3.75
2018-08-22T16:28:59.407Z,3.58
2018-08-22T16:31:59.882Z,3.45
2018-08-22T16:34:29.964Z,3.52
2018-08-22T16:37:01.039Z,3.30
2018-08-22T16:39:41.060Z,3.65
2018-08-22T16:42:12.906Z,6.70
2018-08-22T16:44:43.416Z,3.87
2018-08-22T16:47:14.986Z,3.05
2018-08-22T16:49:45.627Z,3.52
2018-08-22T16:52:16.401Z,3.05
2018-08-22T16:54:47.477Z,3.67
2018-08-22T16:57:17.737Z,3.47
2018-08-22T16:59:48.570Z,3.10
2018-08-22T17:02:18.679Z,3.40
2018-08-22T17:04:49.890Z,3.70
2018-08-22T17:07:20.765Z,3.87
2018-08-22T17:09:51.578Z,3.50
2018-08-22T17:12:22.005Z,3.42
2018-08-22T17:14:54.074Z,4.30
2018-08-22T17:17:24.765Z,3.55
2018-08-22T17:19:55.510Z,3.30
2018-08-22T17:22:26.294Z,4.17
2018-08-22T17:24:56.528Z,3.52
2018-08-22T17:27:27.898Z,3.45
2018-08-22T17:29:58.428Z,3.75
2018-08-22T17:32:30.244Z,3.47
2018-08-22T17:35:01.090Z,3.83
2018-08-22T17:37:31.347Z,3.90
2018-08-22T17:40:02.140Z,3.83
2018-08-22T17:42:32.667Z,3.50
2018-08-22T17:45:03.395Z,5.80
2018-08-22T17:47:33.509Z,9.23
2018-08-22T17:50:10.442Z,6.33
2018-08-22T17:52:41.369Z,4.50
2018-08-22T17:55:12.308Z,5.20
2018-08-22T17:57:42.770Z,6.43
2018-08-22T18:00:13.660Z,4.20
2018-08-22T18:02:44.627Z,3.70
2018-08-22T18:05:15.254Z,3.93
2018-08-22T18:07:45.838Z,3.97
2018-08-22T18:10:15.842Z,3.73
2018-08-22T18:12:46.216Z,3.60
2018-08-22T18:15:19.757Z,3.70
2018-08-22T18:17:50.857Z,3.80
2018-08-22T18:20:21.067Z,3.20
2018-08-22T18:22:50.953Z,3.97
2018-08-22T18:25:21.087Z,3.37
2018-08-22T18:27:55.773Z,4.17
2018-08-22T18:30:25.645Z,3.67
2018-08-22T18:32:55.349Z,4.30
2018-08-22T18:35:24.947Z,4.03
2018-08-22T18:37:55.247Z,3.83
2018-08-22T18:40:26.988Z,3.27
2018-08-22T18:42:57.936Z,4.33
2018-08-22T18:45:27.707Z,4.07
2018-08-22T18:47:57.374Z,4.13
2018-08-22T18:50:26.397Z,3.90
2018-08-22T18:52:57.824Z,4.63
2018-08-22T18:55:31.518Z,4.33
2018-08-22T18:58:02.093Z,4.00
2018-08-22T19:00:34.906Z,4.47
2018-08-22T19:03:04.272Z,4.70
2018-08-22T19:05:35.423Z,3.80
2018-08-22T19:08:14.880Z,4.50
2018-08-22T19:10:52.073Z,4.43
2018-08-22T19:13:29.149Z,4.80
2018-08-22T19:16:05.656Z,4.57
2018-08-22T19:18:35.699Z,4.50
2018-08-22T19:21:07.753Z,5.27
2018-08-22T19:23:41.041Z,5.33
2018-08-22T19:26:12.052Z,4.87
2018-08-22T19:28:54.997Z,4.87
2018-08-22T19:31:24.413Z,4.40
2018-08-22T19:33:54.059Z,5.37
2018-08-22T19:36:23.825Z,5.30
2018-08-22T19:38:53.632Z,4.23
2018-08-22T19:41:35.106Z,4.50
2018-08-22T19:44:05.837Z,4.57
2018-08-22T19:46:36.173Z,4.40
2018-08-22T19:49:06.036Z,4.77
2018-08-22T19:51:44.619Z,4.17
2018-08-22T19:54:14.079Z,4.80
2018-08-22T19:56:44.909Z,4.87
2018-08-22T19:59:15.123Z,4.47
2018-08-22T20:01:45.084Z,4.33
2018-08-22T20:04:14.563Z,4.27
2018-08-22T20:06:43.842Z,4.17
2018-08-22T20:09:13.292Z,4.13
2018-08-22T20:11:42.721Z,4.20
2018-08-22T20:14:12.327Z,4.37
2018-08-22T20:16:41.844Z,4.03
2018-08-22T20:19:11.441Z,4.00
2018-08-22T20:21:42.487Z,4.43
2018-08-22T20:24:13.061Z,3.93
2018-08-22T20:27:17.935Z,4.00
2018-08-22T20:29:47.926Z,4.20
2018-08-22T20:32:26.452Z,3.97
2018-08-22T20:34:55.939Z,3.63
2018-08-22T20:37:25.303Z,3.50
2018-08-22T20:39:59.967Z,4.23
2018-08-22T20:42:30.821Z,3.80
2018-08-22T20:45:01.007Z,3.73
2018-08-22T20:47:30.830Z,3.70
2018-08-22T20:50:00.505Z,3.87
2018-08-22T20:52:30.253Z,4.03
2018-08-22T20:55:04.983Z,3.87
2018-08-22T20:57:34.333Z,4.20
2018-08-22T21:00:05.341Z,5.33
2018-08-22T21:02:36.328Z,4.60
2018-08-22T21:05:06.906Z,4.87
2018-08-22T21:07:40.020Z,4.90
2018-08-22T21:10:10.391Z,4.90
2018-08-22T21:12:40.789Z,4.73
2018-08-22T21:15:10.942Z,4.70
2018-08-22T21:17:40.718Z,4.33
2018-08-22T21:20:14.448Z,4.20
2018-08-22T21:22:43.913Z,4.10
2018-08-22T21:25:16.047Z,4.00
2018-08-22T21:27:46.276Z,3.93
2018-08-22T21:30:16.114Z,3.93
2018-08-22T21:32:46.527Z,4.00
2018-08-22T21:35:21.209Z,3.40
2018-08-22T21:37:50.895Z,3.97
2018-08-22T21:40:20.899Z,3.20
2018-08-22T21:42:50.245Z,3.23
2018-08-22T21:45:19.745Z,3.20
2018-08-22T21:47:49.581Z,3.00
2018-08-22T21:50:19.549Z,3.27
2018-08-22T21:52:54.105Z,3.10
2018-08-22T21:55:29.467Z,2.83
2018-08-22T21:57:59.439Z,2.73
2018-08-22T22:00:29.882Z,2.37
2018-08-22T22:02:59.155Z,2.73
2018-08-22T22:05:39.584Z,2.57
2018-08-22T22:08:09.193Z,2.90
2018-08-22T22:10:39.169Z,2.30
2018-08-22T22:13:09.587Z,2.90
2018-08-22T22:15:45.053Z,2.60
2018-08-22T22:18:14.582Z,2.83
2018-08-22T22:20:48.044Z,2.90
2018-08-22T22:23:18.740Z,2.80
2018-08-22T22:25:48.402Z,2.53
2018-08-22T22:28:18.027Z,2.20
2018-08-22T22:30:47.728Z,2.47
2018-08-22T22:33:17.568Z,2.40
2018-08-22T22:35:47.173Z,2.17
2018-08-22T22:38:16.379Z,3.10
2018-08-22T22:40:45.501Z,2.40
2018-08-22T22:43:15.477Z,2.43
2018-08-22T22:45:45.337Z,2.70
2018-08-22T22:48:19.296Z,2.90
2018-08-22T22:50:49.018Z,2.40
2018-08-22T22:53:18.408Z,2.30
2018-08-22T22:55:47.758Z,2.47
2018-08-22T22:58:17.479Z,2.70
2018-08-22T23:00:46.748Z,2.40
2018-08-22T23:03:16.341Z,3.13
2018-08-22T23:05:45.809Z,2.60
2018-08-22T23:08:15.313Z,2.57
2018-08-22T23:10:44.685Z,2.33
2018-08-22T23:13:14.256Z,2.70
2018-08-22T23:15:43.946Z,2.20
2018-08-22T23:18:13.089Z,2.53
2018-08-22T23:20:43.991Z,2.20
2018-08-22T23:23:42.099Z,2.20
2018-08-22T23:26:21.111Z,2.17
2018-08-22T23:28:50.551Z,2.50
2018-08-22T23:31:21.177Z,2.00
2018-08-22T23:33:50.651Z,2.07
2018-08-22T23:36:20.071Z,2.50
2018-08-22T23:38:49.523Z,2.40
2018-08-22T23:41:19.457Z,2.20
2018-08-22T23:43:51.950Z,2.80
2018-08-22T23:46:21.626Z,2.77
2018-08-22T23:48:59.155Z,2.87
2018-08-22T23:51:28.736Z,2.47
2018-08-22T23:53:59.603Z,2.83
2018-08-22T23:56:30.363Z,3.10
2018-08-22T23:58:59.997Z,2.80
